createdAt,value
2019-03-22T00:00:45.547Z,84.23
2019-03-22T00:03:18.032Z,84.54
2019-03-22T00:05:50.409Z,84.83
2019-03-22T00:08:22.875Z,85.08
2019-03-22T00:10:54.902Z,85.44
2019-03-22T00:13:27.418Z,85.50
2019-03-22T00:15:59.895Z,85.70
2019-03-22T00:18:32.477Z,86.03
2019-03-22T00:21:04.745Z,86.21
2019-03-22T00:23:37.214Z,86.36
2019-03-22T00:26:09.589Z,86.70
2019-03-22T00:28:41.960Z,86.86
2019-03-22T00:31:14.323Z,87.09
2019-03-22T00:33:46.703Z,87.32
2019-03-22T00:36:19.128Z,87.46
2019-03-22T00:38:52.677Z,87.76
2019-03-22T00:41:25.049Z,87.83
2019-03-22T00:43:57.419Z,87.85
2019-03-22T00:46:29.792Z,88.20
2019-03-22T00:49:02.885Z,88.42
2019-03-22T00:51:35.251Z,88.46
2019-03-22T00:54:07.445Z,88.51
2019-03-22T00:56:39.792Z,88.62
2019-03-22T00:59:13.402Z,88.68
2019-03-22T01:01:45.764Z,89.01
2019-03-22T01:04:18.187Z,89.07
2019-03-22T01:06:50.506Z,89.08
2019-03-22T01:09:22.881Z,89.30
2019-03-22T01:11:55.250Z,89.35
2019-03-22T01:14:27.624Z,89.47
2019-03-22T01:16:59.999Z,89.62
2019-03-22T01:19:32.369Z,89.72
2019-03-22T01:22:05.044Z,89.76
2019-03-22T01:24:37.419Z,89.56
2019-03-22T01:27:09.793Z,89.74
2019-03-22T01:29:41.788Z,89.74
2019-03-22T01:32:13.717Z,89.90
2019-03-22T01:34:46.089Z,89.90
2019-03-22T01:37:18.459Z,90.09
2019-03-22T01:39:51.443Z,90.03
2019-03-22T01:42:23.713Z,90.30
2019-03-22T01:44:55.714Z,90.45
2019-03-22T01:47:27.640Z,90.44
2019-03-22T01:50:00.012Z,90.72
2019-03-22T01:52:32.384Z,90.89
2019-03-22T01:55:04.757Z,90.92
2019-03-22T01:57:37.023Z,90.92
2019-03-22T02:00:17.333Z,90.93
2019-03-22T02:02:49.651Z,91.00
2019-03-22T02:05:22.027Z,91.09
2019-03-22T02:07:54.057Z,91.25
2019-03-22T02:10:26.463Z,91.25
2019-03-22T02:12:58.839Z,91.39
2019-03-22T02:15:31.207Z,91.49
2019-03-22T02:18:03.748Z,91.49
2019-03-22T02:20:36.512Z,91.54
2019-03-22T02:23:08.834Z,91.73
2019-03-22T02:25:41.208Z,91.80
2019-03-22T02:28:13.581Z,91.92
2019-03-22T02:30:45.950Z,92.00
2019-03-22T02:33:18.321Z,92.03
2019-03-22T02:35:50.693Z,91.86
2019-03-22T02:38:23.066Z,91.88
2019-03-22T02:40:55.628Z,91.96
2019-03-22T02:43:27.918Z,92.10
2019-03-22T02:46:00.409Z,92.15
2019-03-22T02:48:32.758Z,92.33
2019-03-22T02:51:05.131Z,92.55
2019-03-22T02:53:37.060Z,92.57
2019-03-22T02:56:09.518Z,92.72
2019-03-22T02:58:42.049Z,92.74
2019-03-22T03:01:15.353Z,92.71
2019-03-22T03:03:47.721Z,92.62
2019-03-22T03:06:20.213Z,92.60
2019-03-22T03:08:52.562Z,92.65
2019-03-22T03:11:24.936Z,92.76
2019-03-22T03:13:57.301Z,92.76
2019-03-22T03:16:29.571Z,92.80
2019-03-22T03:19:01.552Z,92.92
2019-03-22T03:21:33.910Z,93.01
2019-03-22T03:24:06.285Z,92.86
2019-03-22T03:26:38.648Z,93.02
2019-03-22T03:29:10.625Z,93.11
2019-03-22T03:31:43.001Z,93.08
2019-03-22T03:34:15.521Z,93.12
2019-03-22T03:36:47.852Z,93.23
2019-03-22T03:39:20.209Z,93.22
2019-03-22T03:41:52.139Z,93.09
2019-03-22T03:44:24.540Z,92.96
2019-03-22T03:46:56.912Z,92.80
2019-03-22T03:49:28.875Z,92.62
2019-03-22T03:52:01.252Z,92.48
2019-03-22T03:54:33.634Z,92.29
2019-03-22T03:57:07.022Z,92.18
2019-03-22T03:59:39.793Z,92.14
2019-03-22T04:02:12.170Z,92.04
2019-03-22T04:04:44.481Z,91.97
2019-03-22T04:07:16.807Z,91.87
2019-03-22T04:09:48.767Z,91.66
2019-03-22T04:12:20.728Z,91.53
2019-03-22T04:14:53.112Z,91.32
2019-03-22T04:17:25.483Z,91.20
2019-03-22T04:19:57.907Z,91.19
2019-03-22T04:22:30.090Z,90.99
2019-03-22T04:25:02.490Z,90.92
2019-03-22T04:27:34.922Z,90.73
2019-03-22T04:30:09.082Z,90.58
2019-03-22T04:32:41.511Z,90.40
2019-03-22T04:35:13.925Z,90.40
2019-03-22T04:37:45.866Z,90.36
2019-03-22T04:40:30.266Z,90.25
2019-03-22T04:43:02.621Z,90.15
2019-03-22T04:45:34.983Z,90.01
2019-03-22T04:48:14.725Z,89.84
2019-03-22T04:50:47.112Z,89.84
2019-03-22T04:53:22.090Z,89.79
2019-03-22T04:55:58.291Z,89.67
2019-03-22T04:58:30.562Z,89.48
2019-03-22T05:01:03.249Z,89.43
2019-03-22T05:03:35.619Z,89.34
2019-03-22T05:06:07.987Z,89.24
2019-03-22T05:08:40.887Z,89.00
2019-03-22T05:11:13.559Z,88.85
2019-03-22T05:13:46.457Z,88.80
2019-03-22T05:16:19.007Z,88.85
2019-03-22T05:18:51.698Z,88.82
2019-03-22T05:21:24.892Z,88.79
2019-03-22T05:23:57.471Z,88.66
2019-03-22T05:26:30.249Z,88.54
2019-03-22T05:29:02.621Z,88.41
2019-03-22T05:32:01.404Z,88.38
2019-03-22T05:34:33.366Z,88.30
2019-03-22T05:37:05.849Z,88.34
2019-03-22T05:39:38.213Z,88.26
2019-03-22T05:42:10.590Z,88.03
2019-03-22T05:44:42.964Z,88.04
2019-03-22T05:47:15.342Z,88.11
2019-03-22T05:49:47.764Z,88.12
2019-03-22T05:52:20.183Z,88.00
2019-03-22T05:54:52.546Z,87.96
2019-03-22T05:57:24.491Z,87.97
2019-03-22T05:59:56.885Z,87.88
2019-03-22T06:02:29.255Z,87.86
2019-03-22T06:05:01.626Z,87.81
2019-03-22T06:07:33.951Z,88.05
2019-03-22T06:10:07.495Z,87.91
2019-03-22T06:12:39.875Z,87.91
2019-03-22T06:15:12.344Z,87.88
2019-03-22T06:17:51.681Z,87.62
2019-03-22T06:20:18.753Z,87.39
2019-03-22T06:22:51.200Z,87.13
2019-03-22T06:25:23.585Z,86.80
2019-03-22T06:27:55.950Z,86.75
2019-03-22T06:30:28.731Z,86.84
2019-03-22T06:33:01.092Z,86.66
2019-03-22T06:35:33.062Z,86.50
2019-03-22T06:38:05.436Z,86.28
2019-03-22T06:40:37.410Z,85.99
2019-03-22T06:43:09.759Z,85.85
2019-03-22T06:45:42.236Z,85.73
2019-03-22T06:48:14.712Z,85.57
2019-03-22T06:50:47.079Z,85.57
2019-03-22T06:53:19.450Z,85.60
2019-03-22T06:55:51.828Z,85.39
2019-03-22T06:58:24.408Z,85.53
2019-03-22T07:00:56.877Z,85.23
2019-03-22T07:03:29.258Z,85.19
2019-03-22T07:06:01.339Z,84.87
2019-03-22T07:08:33.981Z,84.88
2019-03-22T07:11:06.376Z,84.95
2019-03-22T07:13:41.804Z,84.78
2019-03-22T07:16:14.853Z,84.46
2019-03-22T07:18:50.354Z,84.39
2019-03-22T07:21:22.724Z,84.34
2019-03-22T07:23:55.096Z,84.45
2019-03-22T07:26:29.970Z,83.97
2019-03-22T07:29:01.476Z,83.90
2019-03-22T07:31:35.755Z,83.64
2019-03-22T07:34:07.398Z,83.47
2019-03-22T07:36:39.926Z,83.50
2019-03-22T07:39:12.297Z,83.07
2019-03-22T07:41:44.669Z,82.97
2019-03-22T07:44:17.142Z,82.76
2019-03-22T07:46:49.515Z,82.51
2019-03-22T07:49:22.899Z,82.23
2019-03-22T07:51:55.376Z,82.29
2019-03-22T07:54:27.748Z,82.31
2019-03-22T07:57:00.126Z,82.17
2019-03-22T07:59:32.502Z,82.30
2019-03-22T08:02:04.864Z,82.20
2019-03-22T08:04:37.243Z,82.07
2019-03-22T08:07:09.608Z,81.62
2019-03-22T08:09:42.323Z,81.46
2019-03-22T08:12:14.667Z,81.46
2019-03-22T08:14:47.055Z,81.67
2019-03-22T08:17:19.418Z,81.44
2019-03-22T08:19:51.372Z,81.36
2019-03-22T08:22:23.555Z,80.89
2019-03-22T08:24:55.902Z,80.71
2019-03-22T08:27:28.297Z,80.25
2019-03-22T08:30:00.663Z,80.29
2019-03-22T08:32:33.029Z,80.68
2019-03-22T08:35:05.540Z,80.46
2019-03-22T08:37:37.468Z,80.44
2019-03-22T08:40:09.846Z,80.13
2019-03-22T08:42:42.710Z,80.44
2019-03-22T08:45:14.878Z,80.65
2019-03-22T08:47:47.263Z,80.84
2019-03-22T08:50:19.634Z,80.38
2019-03-22T08:52:52.053Z,80.20
2019-03-22T08:55:24.383Z,80.57
2019-03-22T08:57:56.844Z,79.65
2019-03-22T09:00:38.652Z,79.47
2019-03-22T09:03:02.772Z,79.32
2019-03-22T09:05:35.234Z,79.24
2019-03-22T09:08:07.598Z,78.95
2019-03-22T09:10:39.832Z,78.55
2019-03-22T09:13:12.112Z,78.59
2019-03-22T09:15:44.486Z,78.63
2019-03-22T09:18:16.955Z,78.46
2019-03-22T09:20:49.345Z,78.87
2019-03-22T09:23:21.310Z,78.08
2019-03-22T09:25:53.265Z,77.88
2019-03-22T09:28:25.630Z,77.43
2019-03-22T09:31:09.869Z,77.79
2019-03-22T09:33:32.019Z,78.10
2019-03-22T09:36:04.416Z,77.65
2019-03-22T09:38:36.976Z,77.86
2019-03-22T09:41:09.317Z,76.92
2019-03-22T09:43:41.810Z,76.41
2019-03-22T09:46:14.180Z,76.50
2019-03-22T09:48:46.568Z,76.73
2019-03-22T09:51:18.909Z,76.35
2019-03-22T09:53:51.311Z,77.38
2019-03-22T09:56:23.267Z,77.35
2019-03-22T09:58:55.618Z,77.61
2019-03-22T10:01:27.992Z,76.80
2019-03-22T10:03:59.995Z,76.59
2019-03-22T10:06:32.468Z,76.82
2019-03-22T10:09:06.337Z,76.92
2019-03-22T10:11:38.728Z,76.86
2019-03-22T10:14:11.082Z,76.07
2019-03-22T10:16:43.451Z,76.84
2019-03-22T10:19:15.500Z,76.25
2019-03-22T10:21:47.940Z,75.73
2019-03-22T10:24:20.373Z,76.42
2019-03-22T10:26:52.798Z,75.91
2019-03-22T10:29:25.222Z,75.88
2019-03-22T10:31:57.531Z,75.60
2019-03-22T10:34:29.737Z,75.12
2019-03-22T10:37:02.132Z,74.83
2019-03-22T10:39:34.504Z,74.19
2019-03-22T10:42:07.833Z,74.22
2019-03-22T10:44:40.173Z,73.33
2019-03-22T10:47:12.554Z,73.36
2019-03-22T10:49:44.733Z,73.84
2019-03-22T10:52:17.449Z,73.87
2019-03-22T10:54:49.753Z,73.04
2019-03-22T10:57:22.113Z,72.70
2019-03-22T10:59:54.393Z,72.90
2019-03-22T11:02:27.278Z,73.17
2019-03-22T11:05:01.778Z,73.31
2019-03-22T11:07:33.342Z,73.53
2019-03-22T11:10:14.728Z,73.82
2019-03-22T11:12:47.206Z,73.51
2019-03-22T11:15:19.588Z,73.73
2019-03-22T11:17:52.045Z,73.77
2019-03-22T11:20:23.995Z,74.41
2019-03-22T11:22:56.415Z,74.30
2019-03-22T11:25:29.014Z,74.48
2019-03-22T11:28:01.462Z,73.76
2019-03-22T11:30:34.687Z,73.85
2019-03-22T11:33:07.098Z,73.80
2019-03-22T11:35:39.470Z,74.06
2019-03-22T11:38:11.852Z,73.83
2019-03-22T11:40:44.221Z,74.43
2019-03-22T11:43:16.581Z,73.96
2019-03-22T11:45:48.625Z,74.09
2019-03-22T11:48:21.027Z,74.02
2019-03-22T11:50:53.398Z,74.27
2019-03-22T11:53:25.818Z,74.54
2019-03-22T11:55:58.148Z,74.18
2019-03-22T11:58:30.724Z,74.50
2019-03-22T12:01:02.928Z,74.46
2019-03-22T12:03:36.376Z,73.97
2019-03-22T12:06:08.535Z,73.98
2019-03-22T12:08:40.537Z,74.08
2019-03-22T12:11:12.637Z,73.57
2019-03-22T12:13:45.063Z,73.44
2019-03-22T12:16:17.421Z,73.94
2019-03-22T12:18:50.482Z,73.97
2019-03-22T12:21:22.982Z,73.84
2019-03-22T12:23:56.335Z,73.38
2019-03-22T12:26:29.270Z,73.44
2019-03-22T12:29:01.648Z,73.40
2019-03-22T12:31:34.003Z,73.44
2019-03-22T12:34:06.411Z,74.15
2019-03-22T12:36:38.807Z,74.38
2019-03-22T12:39:11.124Z,74.03
2019-03-22T12:41:43.501Z,74.03
2019-03-22T12:44:15.874Z,74.42
2019-03-22T12:46:49.305Z,74.71
2019-03-22T12:49:21.953Z,74.66
2019-03-22T12:51:54.385Z,74.63
2019-03-22T12:54:26.795Z,74.27
2019-03-22T12:56:59.585Z,74.82
2019-03-22T12:59:31.943Z,74.92
2019-03-22T13:02:04.310Z,75.08
2019-03-22T13:04:36.683Z,75.50
2019-03-22T13:07:09.057Z,75.48
2019-03-22T13:09:41.428Z,75.52
2019-03-22T13:12:13.411Z,75.58
2019-03-22T13:14:45.764Z,75.89
2019-03-22T13:17:18.151Z,76.08
2019-03-22T13:19:50.516Z,76.14
2019-03-22T13:22:22.952Z,75.99
2019-03-22T13:24:55.365Z,76.08
2019-03-22T13:27:27.880Z,76.64
2019-03-22T13:30:00.720Z,76.91
2019-03-22T13:32:32.819Z,76.86
2019-03-22T13:35:05.214Z,76.88
2019-03-22T13:37:37.626Z,76.80
2019-03-22T13:40:10.306Z,77.20
2019-03-22T13:42:43.299Z,77.44
2019-03-22T13:45:15.671Z,77.21
2019-03-22T13:47:48.141Z,77.77
2019-03-22T13:50:20.518Z,77.52
2019-03-22T13:52:53.090Z,77.03
2019-03-22T13:55:26.744Z,76.35
2019-03-22T13:57:59.178Z,77.29
2019-03-22T14:00:31.169Z,77.26
2019-03-22T14:03:03.610Z,77.17
2019-03-22T14:05:35.981Z,77.69
2019-03-22T14:08:07.948Z,77.55
2019-03-22T14:10:39.890Z,77.39
2019-03-22T14:13:12.264Z,77.46
2019-03-22T14:15:44.639Z,77.14
2019-03-22T14:18:17.428Z,77.21
2019-03-22T14:20:50.927Z,77.62
2019-03-22T14:23:23.400Z,78.01
2019-03-22T14:25:55.975Z,78.20
2019-03-22T14:28:29.297Z,78.24
2019-03-22T14:31:01.268Z,78.29
2019-03-22T14:33:33.789Z,78.56
2019-03-22T14:36:05.723Z,78.61
2019-03-22T14:38:38.138Z,78.75
2019-03-22T14:41:10.518Z,78.98
2019-03-22T14:43:42.882Z,78.73
2019-03-22T14:46:16.382Z,78.83
2019-03-22T14:48:48.748Z,78.91
2019-03-22T14:51:21.787Z,78.83
2019-03-22T14:53:54.326Z,78.81
2019-03-22T14:56:26.693Z,79.06
2019-03-22T14:58:59.062Z,79.08
2019-03-22T15:01:31.439Z,79.04
2019-03-22T15:04:03.812Z,78.91
2019-03-22T15:06:36.188Z,79.23
2019-03-22T15:09:09.366Z,79.54
2019-03-22T15:11:41.746Z,79.77
2019-03-22T15:14:22.612Z,79.68
2019-03-22T15:17:02.667Z,79.49
2019-03-22T15:19:48.258Z,79.70
2019-03-22T15:22:26.411Z,79.56
2019-03-22T15:25:15.626Z,79.88
2019-03-22T15:27:56.072Z,79.68
2019-03-22T15:30:31.222Z,79.37
2019-03-22T15:33:11.071Z,79.42
2019-03-22T15:35:50.484Z,79.53
2019-03-22T15:38:31.167Z,79.50
2019-03-22T15:41:03.457Z,79.69
2019-03-22T15:43:35.820Z,79.94
2019-03-22T15:46:08.212Z,80.08
2019-03-22T15:48:40.699Z,80.50
2019-03-22T15:51:13.059Z,80.54
2019-03-22T15:53:45.025Z,80.38
2019-03-22T15:56:17.011Z,80.42
2019-03-22T15:58:49.425Z,80.48
2019-03-22T16:01:21.624Z,80.60
2019-03-22T16:03:53.963Z,80.71
2019-03-22T16:06:26.345Z,80.98
2019-03-22T16:08:58.280Z,81.02
2019-03-22T16:11:30.703Z,80.77
2019-03-22T16:14:03.042Z,80.59
2019-03-22T16:16:35.030Z,80.60
2019-03-22T16:19:07.477Z,80.72
2019-03-22T16:21:39.456Z,81.03
2019-03-22T16:24:11.822Z,80.80
2019-03-22T16:26:44.193Z,80.89
2019-03-22T16:29:16.560Z,81.00
2019-03-22T16:31:48.936Z,80.93
2019-03-22T16:34:21.307Z,80.94
2019-03-22T16:36:53.295Z,81.19
2019-03-22T16:39:26.046Z,81.24
2019-03-22T16:41:58.519Z,81.43
2019-03-22T16:44:30.894Z,81.77
2019-03-22T16:47:03.374Z,82.02
2019-03-22T16:49:35.764Z,81.87
2019-03-22T16:52:08.209Z,82.19
2019-03-22T16:54:40.588Z,82.36
2019-03-22T16:57:12.953Z,82.56
2019-03-22T16:59:45.326Z,82.49
2019-03-22T17:02:17.703Z,82.82
2019-03-22T17:04:50.082Z,82.96
2019-03-22T17:07:22.442Z,83.11
2019-03-22T17:09:55.242Z,83.72
2019-03-22T17:12:27.195Z,83.92
2019-03-22T17:14:59.194Z,84.16
2019-03-22T17:17:31.536Z,84.36
2019-03-22T17:20:04.098Z,84.36
2019-03-22T17:22:36.476Z,84.54
2019-03-22T17:25:09.158Z,84.59
2019-03-22T17:27:42.447Z,85.65
2019-03-22T17:30:15.437Z,86.39
2019-03-22T17:32:47.811Z,86.82
2019-03-22T17:35:20.172Z,86.54
2019-03-22T17:37:53.579Z,86.18
2019-03-22T17:40:25.942Z,86.29
2019-03-22T17:42:58.317Z,86.74
2019-03-22T17:45:30.685Z,86.60
2019-03-22T17:48:03.055Z,86.28
2019-03-22T17:50:35.441Z,86.31
2019-03-22T17:53:07.812Z,86.66
2019-03-22T17:55:40.174Z,86.88
2019-03-22T17:58:12.549Z,87.48
2019-03-22T18:00:45.761Z,87.73
2019-03-22T18:03:18.121Z,87.77
2019-03-22T18:05:50.119Z,87.66
2019-03-22T18:08:22.451Z,87.62
2019-03-22T18:10:54.435Z,87.20
2019-03-22T18:13:26.775Z,87.38
2019-03-22T18:15:59.156Z,87.47
2019-03-22T18:18:31.533Z,87.37
2019-03-22T18:21:04.006Z,87.11
2019-03-22T18:23:36.489Z,87.09
2019-03-22T18:26:08.953Z,87.34
2019-03-22T18:28:42.321Z,87.33
2019-03-22T18:31:14.744Z,87.85
2019-03-22T18:33:48.209Z,87.89
2019-03-22T18:36:20.595Z,87.83
2019-03-22T18:38:52.966Z,87.55
2019-03-22T18:41:25.900Z,87.64
2019-03-22T18:43:59.817Z,87.89
2019-03-22T18:46:33.121Z,88.05
2019-03-22T18:49:07.474Z,88.24
2019-03-22T18:51:44.233Z,87.94
2019-03-22T18:54:18.247Z,87.74
2019-03-22T18:56:52.493Z,88.04
2019-03-22T18:59:27.340Z,88.37
2019-03-22T19:02:01.334Z,88.28
2019-03-22T19:04:43.624Z,88.36
2019-03-22T19:07:11.229Z,88.43
2019-03-22T19:09:54.148Z,88.62
2019-03-22T19:12:30.383Z,88.87
2019-03-22T19:15:04.307Z,88.97
2019-03-22T19:17:39.170Z,88.89
2019-03-22T19:20:15.052Z,89.03
2019-03-22T19:22:48.651Z,89.05
2019-03-22T19:25:24.033Z,89.01
2019-03-22T19:27:57.246Z,88.94
2019-03-22T19:30:32.196Z,88.96
2019-03-22T19:33:06.578Z,88.88
2019-03-22T19:35:39.204Z,88.79
2019-03-22T19:38:20.223Z,89.10
2019-03-22T19:41:01.975Z,89.25
2019-03-22T19:43:37.630Z,88.93
2019-03-22T19:46:13.218Z,88.89
2019-03-22T19:48:45.542Z,89.07
2019-03-22T19:51:17.930Z,89.44
2019-03-22T19:53:50.632Z,89.68
2019-03-22T19:56:26.044Z,89.96
2019-03-22T19:59:00.731Z,90.15
2019-03-22T20:01:35.970Z,90.23
2019-03-22T20:04:11.183Z,90.29
2019-03-22T20:06:44.251Z,90.41
2019-03-22T20:09:17.682Z,90.32
2019-03-22T20:11:51.826Z,90.52
2019-03-22T20:14:26.145Z,90.42
2019-03-22T20:16:59.587Z,90.33
2019-03-22T20:19:33.971Z,90.38
2019-03-22T20:22:15.366Z,90.52
2019-03-22T20:24:43.029Z,90.51
2019-03-22T20:27:16.520Z,90.42
2019-03-22T20:29:52.088Z,90.27
2019-03-22T20:32:33.024Z,89.99
2019-03-22T20:35:16.038Z,90.00
2019-03-22T20:37:45.290Z,89.99
2019-03-22T20:40:21.437Z,89.94
2019-03-22T20:42:57.156Z,89.77
2019-03-22T20:45:29.972Z,89.51
2019-03-22T20:48:04.579Z,89.33
2019-03-22T20:50:37.522Z,89.13
2019-03-22T20:53:10.546Z,88.92
2019-03-22T20:55:43.836Z,88.56
2019-03-22T20:58:16.695Z,88.16
2019-03-22T21:00:49.614Z,87.74
2019-03-22T21:03:22.227Z,87.49
2019-03-22T21:05:55.039Z,87.55
2019-03-22T21:08:28.719Z,87.40
2019-03-22T21:11:02.047Z,87.27
2019-03-22T21:13:34.743Z,87.22
2019-03-22T21:16:10.908Z,86.98
2019-03-22T21:18:43.276Z,86.64
2019-03-22T21:21:15.660Z,85.95
2019-03-22T21:23:47.634Z,85.28
2019-03-22T21:26:19.603Z,85.07
2019-03-22T21:28:51.942Z,84.82
2019-03-22T21:31:24.434Z,84.61
2019-03-22T21:33:56.437Z,84.83
2019-03-22T21:36:29.628Z,84.42
2019-03-22T21:39:02.502Z,84.56
2019-03-22T21:41:35.175Z,84.50
2019-03-22T21:44:07.112Z,84.37
2019-03-22T21:46:39.588Z,84.05
2019-03-22T21:49:12.071Z,83.85
2019-03-22T21:51:44.637Z,84.02
2019-03-22T21:54:16.595Z,83.64
2019-03-22T21:56:49.103Z,83.65
2019-03-22T21:59:21.466Z,83.57
2019-03-22T22:01:55.045Z,83.59
2019-03-22T22:04:27.419Z,83.60
2019-03-22T22:07:01.428Z,83.47
2019-03-22T22:09:33.787Z,83.54
2019-03-22T22:12:06.500Z,83.37
2019-03-22T22:14:41.067Z,83.40
2019-03-22T22:17:12.544Z,83.48
2019-03-22T22:19:45.065Z,83.65
2019-03-22T22:22:17.388Z,83.68
2019-03-22T22:24:49.814Z,83.41
2019-03-22T22:27:22.140Z,82.40
2019-03-22T22:29:54.096Z,82.66
2019-03-22T22:32:26.477Z,82.83
2019-03-22T22:34:58.429Z,82.79
2019-03-22T22:37:33.194Z,82.44
2019-03-22T22:40:11.503Z,82.52
2019-03-22T22:42:51.749Z,82.55
2019-03-22T22:45:25.166Z,82.72
2019-03-22T22:47:57.603Z,82.67
2019-03-22T22:50:29.969Z,82.55
2019-03-22T22:53:02.350Z,82.62
2019-03-22T22:55:35.231Z,82.58
2019-03-22T22:58:07.542Z,82.51
2019-03-22T23:00:40.582Z,82.63
2019-03-22T23:03:12.967Z,82.71
2019-03-22T23:05:45.334Z,82.80
2019-03-22T23:08:17.755Z,82.85
2019-03-22T23:10:50.068Z,83.01
2019-03-22T23:13:22.449Z,83.26
2019-03-22T23:15:54.812Z,83.33
2019-03-22T23:18:27.191Z,83.62
2019-03-22T23:20:59.556Z,83.82
2019-03-22T23:23:31.938Z,84.13
2019-03-22T23:26:04.314Z,84.29
2019-03-22T23:28:36.771Z,84.37
2019-03-22T23:31:08.707Z,84.51
2019-03-22T23:33:41.111Z,84.74
2019-03-22T23:36:20.309Z,84.83
2019-03-22T23:38:47.087Z,85.38
2019-03-22T23:41:19.510Z,85.45
2019-03-22T23:43:51.922Z,85.86
2019-03-22T23:46:24.399Z,86.08
2019-03-22T23:48:56.370Z,86.33
2019-03-22T23:51:28.735Z,86.46
2019-03-22T23:54:02.852Z,86.54
2019-03-22T23:56:35.218Z,86.89
2019-03-22T23:59:07.706Z,87.09
